sensor_id;sensor_type;location;lat;lon;timestamp;P1;durP1;ratioP1;P2;durP2;ratioP2
19509;SDS011;9896;42.486;26.506;2022-12-07T00:01:18;47.13;;;20.03;;
19509;SDS011;9896;42.486;26.506;2022-12-07T00:03:44;47.73;;;21.87;;
19509;SDS011;9896;42.486;26.506;2022-12-07T00:06:11;44.57;;;19.50;;
19509;SDS011;9896;42.486;26.506;2022-12-07T00:08:36;49.93;;;20.97;;
19509;SDS011;9896;42.486;26.506;2022-12-07T00:11:02;50.67;;;20.93;;
19509;SDS011;9896;42.486;26.506;2022-12-07T00:13:28;49.33;;;21.03;;
19509;SDS011;9896;42.486;26.506;2022-12-07T00:15:54;53.73;;;20.17;;
19509;SDS011;9896;42.486;26.506;2022-12-07T00:18:19;52.63;;;21.13;;
19509;SDS011;9896;42.486;26.506;2022-12-07T00:20:45;47.43;;;20.40;;
19509;SDS011;9896;42.486;26.506;2022-12-07T00:23:10;45.13;;;20.43;;
19509;SDS011;9896;42.486;26.506;2022-12-07T00:25:35;46.30;;;19.27;;
19509;SDS011;9896;42.486;26.506;2022-12-07T00:28:01;49.70;;;20.93;;
19509;SDS011;9896;42.486;26.506;2022-12-07T00:30:26;49.20;;;21.10;;
19509;SDS011;9896;42.486;26.506;2022-12-07T00:32:52;45.80;;;20.07;;
19509;SDS011;9896;42.486;26.506;2022-12-07T00:35:17;49.87;;;19.13;;
19509;SDS011;9896;42.486;26.506;2022-12-07T00:37:42;47.00;;;18.80;;
19509;SDS011;9896;42.486;26.506;2022-12-07T00:40:08;55.80;;;20.50;;
19509;SDS011;9896;42.486;26.506;2022-12-07T00:42:33;49.97;;;20.00;;
19509;SDS011;9896;42.486;26.506;2022-12-07T00:44:59;45.67;;;19.97;;
19509;SDS011;9896;42.486;26.506;2022-12-07T00:47:24;53.13;;;20.80;;
19509;SDS011;9896;42.486;26.506;2022-12-07T00:49:49;53.23;;;20.70;;
19509;SDS011;9896;42.486;26.506;2022-12-07T00:52:15;53.63;;;21.00;;
19509;SDS011;9896;42.486;26.506;2022-12-07T00:54:40;51.57;;;20.87;;
19509;SDS011;9896;42.486;26.506;2022-12-07T00:57:05;47.13;;;20.47;;
19509;SDS011;9896;42.486;26.506;2022-12-07T00:59:31;46.97;;;18.63;;
19509;SDS011;9896;42.486;26.506;2022-12-07T01:01:56;49.93;;;19.30;;
19509;SDS011;9896;42.486;26.506;2022-12-07T01:04:21;51.37;;;21.23;;
19509;SDS011;9896;42.486;26.506;2022-12-07T01:06:47;55.27;;;22.57;;
19509;SDS011;9896;42.486;26.506;2022-12-07T01:09:12;44.33;;;19.40;;
19509;SDS011;9896;42.486;26.506;2022-12-07T01:11:38;68.30;;;22.13;;
19509;SDS011;9896;42.486;26.506;2022-12-07T01:14:03;47.00;;;17.23;;
19509;SDS011;9896;42.486;26.506;2022-12-07T01:16:29;51.43;;;21.73;;
19509;SDS011;9896;42.486;26.506;2022-12-07T01:18:55;55.73;;;20.73;;
19509;SDS011;9896;42.486;26.506;2022-12-07T01:21:29;50.53;;;19.00;;
19509;SDS011;9896;42.486;26.506;2022-12-07T01:23:54;54.17;;;21.43;;
19509;SDS011;9896;42.486;26.506;2022-12-07T01:26:22;51.23;;;22.30;;
19509;SDS011;9896;42.486;26.506;2022-12-07T01:28:48;49.67;;;19.07;;
19509;SDS011;9896;42.486;26.506;2022-12-07T01:31:14;50.67;;;20.03;;
19509;SDS011;9896;42.486;26.506;2022-12-07T01:33:41;49.83;;;18.83;;
19509;SDS011;9896;42.486;26.506;2022-12-07T01:36:08;49.77;;;20.87;;
19509;SDS011;9896;42.486;26.506;2022-12-07T01:38:37;50.53;;;20.77;;
19509;SDS011;9896;42.486;26.506;2022-12-07T01:41:02;54.50;;;21.23;;
19509;SDS011;9896;42.486;26.506;2022-12-07T01:43:28;50.23;;;20.43;;
19509;SDS011;9896;42.486;26.506;2022-12-07T01:45:54;56.03;;;24.37;;
19509;SDS011;9896;42.486;26.506;2022-12-07T01:48:22;53.87;;;22.27;;
19509;SDS011;9896;42.486;26.506;2022-12-07T01:50:49;51.10;;;22.37;;
19509;SDS011;9896;42.486;26.506;2022-12-07T01:53:15;60.27;;;22.90;;
19509;SDS011;9896;42.486;26.506;2022-12-07T01:55:42;57.57;;;22.33;;
19509;SDS011;9896;42.486;26.506;2022-12-07T01:58:08;54.43;;;22.00;;
19509;SDS011;9896;42.486;26.506;2022-12-07T02:00:34;60.80;;;22.63;;
19509;SDS011;9896;42.486;26.506;2022-12-07T02:03:02;59.17;;;22.53;;
19509;SDS011;9896;42.486;26.506;2022-12-07T02:05:28;54.17;;;22.40;;
19509;SDS011;9896;42.486;26.506;2022-12-07T02:07:55;56.43;;;21.50;;
19509;SDS011;9896;42.486;26.506;2022-12-07T02:10:22;52.90;;;24.37;;
19509;SDS011;9896;42.486;26.506;2022-12-07T02:12:49;60.60;;;22.60;;
19509;SDS011;9896;42.486;26.506;2022-12-07T02:15:15;58.77;;;22.13;;
19509;SDS011;9896;42.486;26.506;2022-12-07T02:20:23;62.17;;;23.70;;
19509;SDS011;9896;42.486;26.506;2022-12-07T02:30:50;53.87;;;21.30;;
19509;SDS011;9896;42.486;26.506;2022-12-07T02:35:51;57.23;;;20.93;;
19509;SDS011;9896;42.486;26.506;2022-12-07T02:38:30;53.10;;;21.60;;
19509;SDS011;9896;42.486;26.506;2022-12-07T02:41:01;47.93;;;19.60;;
19509;SDS011;9896;42.486;26.506;2022-12-07T02:43:28;54.43;;;20.63;;
19509;SDS011;9896;42.486;26.506;2022-12-07T02:45:58;55.60;;;21.60;;
19509;SDS011;9896;42.486;26.506;2022-12-07T02:48:25;56.83;;;21.67;;
19509;SDS011;9896;42.486;26.506;2022-12-07T02:50:51;58.20;;;21.27;;
19509;SDS011;9896;42.486;26.506;2022-12-07T02:53:34;54.83;;;22.07;;
19509;SDS011;9896;42.486;26.506;2022-12-07T02:56:09;61.10;;;22.43;;
19509;SDS011;9896;42.486;26.506;2022-12-07T03:01:06;56.63;;;22.33;;
19509;SDS011;9896;42.486;26.506;2022-12-07T03:03:32;49.33;;;19.73;;
19509;SDS011;9896;42.486;26.506;2022-12-07T03:06:22;53.63;;;20.90;;
19509;SDS011;9896;42.486;26.506;2022-12-07T03:11:22;60.97;;;22.40;;
19509;SDS011;9896;42.486;26.506;2022-12-07T03:13:54;58.30;;;21.50;;
19509;SDS011;9896;42.486;26.506;2022-12-07T03:16:23;54.70;;;20.90;;
19509;SDS011;9896;42.486;26.506;2022-12-07T03:21:43;50.47;;;20.57;;
19509;SDS011;9896;42.486;26.506;2022-12-07T03:24:08;49.93;;;20.73;;
19509;SDS011;9896;42.486;26.506;2022-12-07T03:26:35;57.70;;;21.83;;
19509;SDS011;9896;42.486;26.506;2022-12-07T03:29:03;57.80;;;20.57;;
19509;SDS011;9896;42.486;26.506;2022-12-07T03:31:34;49.57;;;20.07;;
19509;SDS011;9896;42.486;26.506;2022-12-07T03:39:13;54.77;;;20.83;;
19509;SDS011;9896;42.486;26.506;2022-12-07T03:41:40;54.50;;;21.77;;
19509;SDS011;9896;42.486;26.506;2022-12-07T03:44:06;52.53;;;20.80;;
19509;SDS011;9896;42.486;26.506;2022-12-07T03:46:34;52.03;;;22.97;;
19509;SDS011;9896;42.486;26.506;2022-12-07T03:49:07;49.30;;;21.97;;
19509;SDS011;9896;42.486;26.506;2022-12-07T03:56:35;53.03;;;20.87;;
19509;SDS011;9896;42.486;26.506;2022-12-07T03:59:01;56.63;;;20.60;;
19509;SDS011;9896;42.486;26.506;2022-12-07T04:01:26;50.17;;;20.67;;
19509;SDS011;9896;42.486;26.506;2022-12-07T04:03:52;56.00;;;20.93;;
19509;SDS011;9896;42.486;26.506;2022-12-07T04:06:18;58.87;;;21.07;;
19509;SDS011;9896;42.486;26.506;2022-12-07T04:08:43;54.33;;;22.53;;
19509;SDS011;9896;42.486;26.506;2022-12-07T04:11:08;63.80;;;22.37;;
19509;SDS011;9896;42.486;26.506;2022-12-07T04:13:34;60.57;;;24.00;;
19509;SDS011;9896;42.486;26.506;2022-12-07T04:16:19;56.60;;;22.80;;
19509;SDS011;9896;42.486;26.506;2022-12-07T04:18:45;50.13;;;20.13;;
19509;SDS011;9896;42.486;26.506;2022-12-07T04:21:10;44.37;;;18.50;;
19509;SDS011;9896;42.486;26.506;2022-12-07T04:23:36;56.43;;;19.27;;
19509;SDS011;9896;42.486;26.506;2022-12-07T04:26:01;53.60;;;20.50;;
19509;SDS011;9896;42.486;26.506;2022-12-07T04:28:27;58.00;;;21.40;;
19509;SDS011;9896;42.486;26.506;2022-12-07T04:30:52;57.23;;;20.77;;
19509;SDS011;9896;42.486;26.506;2022-12-07T04:33:17;55.57;;;21.27;;
19509;SDS011;9896;42.486;26.506;2022-12-07T04:35:43;56.70;;;22.43;;
19509;SDS011;9896;42.486;26.506;2022-12-07T04:38:09;92.33;;;34.73;;
19509;SDS011;9896;42.486;26.506;2022-12-07T04:40:34;95.33;;;37.17;;
19509;SDS011;9896;42.486;26.506;2022-12-07T04:43:00;90.33;;;35.77;;
19509;SDS011;9896;42.486;26.506;2022-12-07T04:45:25;82.43;;;34.07;;
19509;SDS011;9896;42.486;26.506;2022-12-07T04:47:50;74.27;;;30.87;;
19509;SDS011;9896;42.486;26.506;2022-12-07T04:50:16;78.10;;;29.47;;
19509;SDS011;9896;42.486;26.506;2022-12-07T04:52:41;62.83;;;27.37;;
19509;SDS011;9896;42.486;26.506;2022-12-07T04:55:07;61.87;;;26.50;;
19509;SDS011;9896;42.486;26.506;2022-12-07T04:57:33;69.77;;;28.27;;
19509;SDS011;9896;42.486;26.506;2022-12-07T04:59:59;70.03;;;28.27;;
19509;SDS011;9896;42.486;26.506;2022-12-07T05:02:24;58.87;;;21.80;;
19509;SDS011;9896;42.486;26.506;2022-12-07T05:04:49;58.03;;;23.57;;
19509;SDS011;9896;42.486;26.506;2022-12-07T05:07:15;62.57;;;23.23;;
19509;SDS011;9896;42.486;26.506;2022-12-07T05:09:40;61.27;;;23.33;;
19509;SDS011;9896;42.486;26.506;2022-12-07T05:12:06;55.07;;;22.17;;
19509;SDS011;9896;42.486;26.506;2022-12-07T05:14:31;59.47;;;22.47;;
19509;SDS011;9896;42.486;26.506;2022-12-07T05:16:56;55.60;;;21.60;;
19509;SDS011;9896;42.486;26.506;2022-12-07T05:19:22;55.17;;;21.60;;
19509;SDS011;9896;42.486;26.506;2022-12-07T05:21:47;52.93;;;19.40;;
19509;SDS011;9896;42.486;26.506;2022-12-07T05:24:13;64.73;;;21.30;;
19509;SDS011;9896;42.486;26.506;2022-12-07T05:26:39;55.87;;;21.40;;
19509;SDS011;9896;42.486;26.506;2022-12-07T05:29:04;56.53;;;21.30;;
19509;SDS011;9896;42.486;26.506;2022-12-07T05:31:30;67.67;;;22.43;;
19509;SDS011;9896;42.486;26.506;2022-12-07T05:33:55;63.00;;;23.30;;
19509;SDS011;9896;42.486;26.506;2022-12-07T05:36:20;61.90;;;23.53;;
19509;SDS011;9896;42.486;26.506;2022-12-07T05:38:46;65.60;;;23.30;;
19509;SDS011;9896;42.486;26.506;2022-12-07T05:41:12;59.70;;;22.40;;
19509;SDS011;9896;42.486;26.506;2022-12-07T05:43:58;63.17;;;20.60;;
19509;SDS011;9896;42.486;26.506;2022-12-07T05:46:23;62.30;;;20.33;;
19509;SDS011;9896;42.486;26.506;2022-12-07T05:48:48;77.30;;;24.80;;
19509;SDS011;9896;42.486;26.506;2022-12-07T05:51:14;66.33;;;26.13;;
19509;SDS011;9896;42.486;26.506;2022-12-07T05:53:39;66.30;;;24.97;;
19509;SDS011;9896;42.486;26.506;2022-12-07T05:56:05;73.47;;;27.43;;
19509;SDS011;9896;42.486;26.506;2022-12-07T05:58:30;62.37;;;23.60;;
19509;SDS011;9896;42.486;26.506;2022-12-07T06:01:14;74.37;;;25.97;;
19509;SDS011;9896;42.486;26.506;2022-12-07T06:03:39;63.37;;;22.97;;
19509;SDS011;9896;42.486;26.506;2022-12-07T06:06:05;60.97;;;21.03;;
19509;SDS011;9896;42.486;26.506;2022-12-07T06:08:30;56.77;;;22.13;;
19509;SDS011;9896;42.486;26.506;2022-12-07T06:10:55;60.67;;;23.77;;
19509;SDS011;9896;42.486;26.506;2022-12-07T06:13:39;63.87;;;22.37;;
19509;SDS011;9896;42.486;26.506;2022-12-07T06:16:05;67.73;;;24.30;;
19509;SDS011;9896;42.486;26.506;2022-12-07T06:18:30;60.93;;;23.13;;
19509;SDS011;9896;42.486;26.506;2022-12-07T06:20:56;71.50;;;24.27;;
19509;SDS011;9896;42.486;26.506;2022-12-07T06:23:21;54.50;;;21.07;;
19509;SDS011;9896;42.486;26.506;2022-12-07T06:25:47;67.80;;;22.10;;
19509;SDS011;9896;42.486;26.506;2022-12-07T06:28:12;69.40;;;21.60;;
19509;SDS011;9896;42.486;26.506;2022-12-07T06:30:37;49.93;;;20.20;;
19509;SDS011;9896;42.486;26.506;2022-12-07T06:33:03;60.17;;;21.13;;
19509;SDS011;9896;42.486;26.506;2022-12-07T06:35:28;63.37;;;22.57;;
19509;SDS011;9896;42.486;26.506;2022-12-07T06:37:54;58.63;;;19.73;;
19509;SDS011;9896;42.486;26.506;2022-12-07T06:40:19;55.33;;;22.63;;
19509;SDS011;9896;42.486;26.506;2022-12-07T06:42:44;63.67;;;22.83;;
19509;SDS011;9896;42.486;26.506;2022-12-07T06:45:10;66.47;;;26.03;;
19509;SDS011;9896;42.486;26.506;2022-12-07T06:47:35;60.33;;;25.17;;
19509;SDS011;9896;42.486;26.506;2022-12-07T06:50:01;63.27;;;26.67;;
19509;SDS011;9896;42.486;26.506;2022-12-07T06:52:26;66.73;;;26.07;;
19509;SDS011;9896;42.486;26.506;2022-12-07T06:54:52;67.50;;;26.47;;
19509;SDS011;9896;42.486;26.506;2022-12-07T06:57:18;68.73;;;25.93;;
19509;SDS011;9896;42.486;26.506;2022-12-07T06:59:45;69.17;;;30.20;;
19509;SDS011;9896;42.486;26.506;2022-12-07T07:02:11;66.87;;;26.00;;
19509;SDS011;9896;42.486;26.506;2022-12-07T07:04:37;68.50;;;28.50;;
19509;SDS011;9896;42.486;26.506;2022-12-07T07:07:03;80.27;;;31.37;;
19509;SDS011;9896;42.486;26.506;2022-12-07T07:09:28;80.97;;;28.27;;
19509;SDS011;9896;42.486;26.506;2022-12-07T07:11:57;74.47;;;30.00;;
19509;SDS011;9896;42.486;26.506;2022-12-07T07:14:22;70.07;;;30.13;;
19509;SDS011;9896;42.486;26.506;2022-12-07T07:16:48;67.47;;;26.13;;
19509;SDS011;9896;42.486;26.506;2022-12-07T07:19:13;55.90;;;23.17;;
19509;SDS011;9896;42.486;26.506;2022-12-07T07:21:38;69.20;;;23.60;;
19509;SDS011;9896;42.486;26.506;2022-12-07T07:24:04;64.13;;;25.37;;
19509;SDS011;9896;42.486;26.506;2022-12-07T07:26:29;63.60;;;23.50;;
19509;SDS011;9896;42.486;26.506;2022-12-07T07:28:55;53.80;;;21.80;;
19509;SDS011;9896;42.486;26.506;2022-12-07T07:31:20;58.67;;;23.23;;
19509;SDS011;9896;42.486;26.506;2022-12-07T07:33:46;64.60;;;25.13;;
19509;SDS011;9896;42.486;26.506;2022-12-07T07:36:12;49.97;;;23.10;;
19509;SDS011;9896;42.486;26.506;2022-12-07T07:38:37;54.03;;;23.07;;
19509;SDS011;9896;42.486;26.506;2022-12-07T07:41:03;66.73;;;26.83;;
19509;SDS011;9896;42.486;26.506;2022-12-07T07:43:28;65.27;;;23.23;;
19509;SDS011;9896;42.486;26.506;2022-12-07T07:45:53;44.93;;;17.70;;
19509;SDS011;9896;42.486;26.506;2022-12-07T07:48:20;49.27;;;19.53;;
19509;SDS011;9896;42.486;26.506;2022-12-07T07:50:47;48.93;;;18.73;;
19509;SDS011;9896;42.486;26.506;2022-12-07T07:53:13;45.43;;;17.80;;
19509;SDS011;9896;42.486;26.506;2022-12-07T07:55:38;52.67;;;19.53;;
19509;SDS011;9896;42.486;26.506;2022-12-07T07:58:04;45.80;;;17.57;;
19509;SDS011;9896;42.486;26.506;2022-12-07T08:00:29;46.33;;;17.50;;
19509;SDS011;9896;42.486;26.506;2022-12-07T08:02:54;44.07;;;17.13;;
19509;SDS011;9896;42.486;26.506;2022-12-07T08:05:20;45.53;;;16.10;;
19509;SDS011;9896;42.486;26.506;2022-12-07T08:07:45;34.50;;;12.73;;
19509;SDS011;9896;42.486;26.506;2022-12-07T08:10:11;41.33;;;14.63;;
19509;SDS011;9896;42.486;26.506;2022-12-07T08:12:37;43.67;;;15.00;;
19509;SDS011;9896;42.486;26.506;2022-12-07T08:15:23;40.93;;;13.83;;
19509;SDS011;9896;42.486;26.506;2022-12-07T08:17:48;41.07;;;15.03;;
19509;SDS011;9896;42.486;26.506;2022-12-07T08:20:14;47.20;;;13.33;;
19509;SDS011;9896;42.486;26.506;2022-12-07T08:22:39;34.63;;;15.33;;
19509;SDS011;9896;42.486;26.506;2022-12-07T08:25:04;41.83;;;14.50;;
19509;SDS011;9896;42.486;26.506;2022-12-07T08:27:30;39.93;;;16.53;;
19509;SDS011;9896;42.486;26.506;2022-12-07T08:29:55;36.17;;;15.43;;
19509;SDS011;9896;42.486;26.506;2022-12-07T08:32:20;43.10;;;15.37;;
19509;SDS011;9896;42.486;26.506;2022-12-07T08:34:46;39.30;;;15.80;;
19509;SDS011;9896;42.486;26.506;2022-12-07T08:37:11;43.83;;;16.80;;
19509;SDS011;9896;42.486;26.506;2022-12-07T08:39:37;41.23;;;15.77;;
19509;SDS011;9896;42.486;26.506;2022-12-07T08:42:02;47.67;;;15.83;;
19509;SDS011;9896;42.486;26.506;2022-12-07T08:44:27;38.50;;;16.03;;
19509;SDS011;9896;42.486;26.506;2022-12-07T08:46:57;35.53;;;16.00;;
19509;SDS011;9896;42.486;26.506;2022-12-07T08:49:25;39.40;;;15.67;;
19509;SDS011;9896;42.486;26.506;2022-12-07T08:51:52;38.80;;;15.73;;
19509;SDS011;9896;42.486;26.506;2022-12-07T08:54:18;38.27;;;16.43;;
19509;SDS011;9896;42.486;26.506;2022-12-07T08:56:44;35.80;;;14.20;;
19509;SDS011;9896;42.486;26.506;2022-12-07T08:59:12;38.97;;;14.53;;
19509;SDS011;9896;42.486;26.506;2022-12-07T09:01:37;39.60;;;14.77;;
19509;SDS011;9896;42.486;26.506;2022-12-07T09:04:03;37.43;;;14.33;;
19509;SDS011;9896;42.486;26.506;2022-12-07T09:06:28;29.70;;;13.73;;
19509;SDS011;9896;42.486;26.506;2022-12-07T09:08:55;35.23;;;14.03;;
19509;SDS011;9896;42.486;26.506;2022-12-07T09:11:21;34.43;;;13.50;;
19509;SDS011;9896;42.486;26.506;2022-12-07T09:13:47;35.17;;;14.07;;
19509;SDS011;9896;42.486;26.506;2022-12-07T09:16:12;41.27;;;13.80;;
19509;SDS011;9896;42.486;26.506;2022-12-07T09:18:38;36.70;;;13.53;;
19509;SDS011;9896;42.486;26.506;2022-12-07T09:21:03;36.83;;;13.93;;
19509;SDS011;9896;42.486;26.506;2022-12-07T09:23:29;40.23;;;13.60;;
19509;SDS011;9896;42.486;26.506;2022-12-07T09:25:54;39.90;;;14.57;;
19509;SDS011;9896;42.486;26.506;2022-12-07T09:28:20;38.03;;;15.20;;
19509;SDS011;9896;42.486;26.506;2022-12-07T09:30:48;33.77;;;14.73;;
19509;SDS011;9896;42.486;26.506;2022-12-07T09:33:14;34.63;;;15.03;;
19509;SDS011;9896;42.486;26.506;2022-12-07T09:35:46;37.33;;;13.83;;
19509;SDS011;9896;42.486;26.506;2022-12-07T09:38:12;40.00;;;14.43;;
19509;SDS011;9896;42.486;26.506;2022-12-07T09:40:38;33.67;;;14.50;;
19509;SDS011;9896;42.486;26.506;2022-12-07T09:43:03;32.07;;;13.77;;
19509;SDS011;9896;42.486;26.506;2022-12-07T09:45:35;32.20;;;13.43;;
19509;SDS011;9896;42.486;26.506;2022-12-07T09:48:04;36.90;;;15.53;;
19509;SDS011;9896;42.486;26.506;2022-12-07T09:50:30;37.37;;;13.80;;
19509;SDS011;9896;42.486;26.506;2022-12-07T09:53:01;33.63;;;14.27;;
19509;SDS011;9896;42.486;26.506;2022-12-07T09:55:29;33.13;;;13.63;;
19509;SDS011;9896;42.486;26.506;2022-12-07T09:57:55;32.60;;;12.90;;
19509;SDS011;9896;42.486;26.506;2022-12-07T10:00:22;35.57;;;13.07;;
19509;SDS011;9896;42.486;26.506;2022-12-07T10:02:58;31.83;;;13.00;;
19509;SDS011;9896;42.486;26.506;2022-12-07T10:05:34;30.70;;;13.33;;
19509;SDS011;9896;42.486;26.506;2022-12-07T10:08:01;32.63;;;13.07;;
19509;SDS011;9896;42.486;26.506;2022-12-07T10:10:29;35.87;;;12.93;;
19509;SDS011;9896;42.486;26.506;2022-12-07T10:15:21;28.10;;;11.47;;
19509;SDS011;9896;42.486;26.506;2022-12-07T10:17:50;24.57;;;12.13;;
19509;SDS011;9896;42.486;26.506;2022-12-07T10:23:15;28.27;;;11.73;;
19509;SDS011;9896;42.486;26.506;2022-12-07T10:25:36;32.03;;;12.07;;
19509;SDS011;9896;42.486;26.506;2022-12-07T10:28:16;27.80;;;12.60;;
19509;SDS011;9896;42.486;26.506;2022-12-07T10:33:29;29.73;;;12.23;;
19509;SDS011;9896;42.486;26.506;2022-12-07T10:35:55;26.00;;;11.20;;
19509;SDS011;9896;42.486;26.506;2022-12-07T10:38:20;33.00;;;12.40;;
19509;SDS011;9896;42.486;26.506;2022-12-07T10:40:46;32.27;;;12.20;;
19509;SDS011;9896;42.486;26.506;2022-12-07T10:53:25;29.87;;;11.63;;
19509;SDS011;9896;42.486;26.506;2022-12-07T10:56:00;28.00;;;12.17;;
19509;SDS011;9896;42.486;26.506;2022-12-07T11:06:11;27.13;;;12.57;;
19509;SDS011;9896;42.486;26.506;2022-12-07T11:08:48;31.20;;;13.30;;
19509;SDS011;9896;42.486;26.506;2022-12-07T11:11:19;30.37;;;13.27;;
19509;SDS011;9896;42.486;26.506;2022-12-07T11:19:06;32.37;;;14.00;;
19509;SDS011;9896;42.486;26.506;2022-12-07T11:24:14;29.50;;;12.90;;
19509;SDS011;9896;42.486;26.506;2022-12-07T11:26:54;28.93;;;12.90;;
19509;SDS011;9896;42.486;26.506;2022-12-07T11:29:29;34.83;;;14.67;;
19509;SDS011;9896;42.486;26.506;2022-12-07T11:32:11;38.47;;;17.00;;
19509;SDS011;9896;42.486;26.506;2022-12-07T11:34:45;34.90;;;14.57;;
19509;SDS011;9896;42.486;26.506;2022-12-07T11:37:13;36.80;;;14.10;;
19509;SDS011;9896;42.486;26.506;2022-12-07T11:39:54;34.93;;;15.17;;
19509;SDS011;9896;42.486;26.506;2022-12-07T11:42:22;32.83;;;14.47;;
19509;SDS011;9896;42.486;26.506;2022-12-07T11:47:16;30.73;;;14.57;;
19509;SDS011;9896;42.486;26.506;2022-12-07T11:49:44;35.57;;;15.50;;
19509;SDS011;9896;42.486;26.506;2022-12-07T11:52:15;33.17;;;14.27;;
19509;SDS011;9896;42.486;26.506;2022-12-07T11:54:42;32.50;;;14.17;;
19509;SDS011;9896;42.486;26.506;2022-12-07T11:57:12;31.50;;;14.13;;
19509;SDS011;9896;42.486;26.506;2022-12-07T11:59:39;28.77;;;13.87;;
19509;SDS011;9896;42.486;26.506;2022-12-07T12:02:13;32.57;;;13.60;;
19509;SDS011;9896;42.486;26.506;2022-12-07T12:04:54;28.50;;;13.57;;
19509;SDS011;9896;42.486;26.506;2022-12-07T12:07:22;28.77;;;14.37;;
19509;SDS011;9896;42.486;26.506;2022-12-07T12:09:49;31.23;;;13.23;;
19509;SDS011;9896;42.486;26.506;2022-12-07T12:22:49;35.33;;;14.07;;
19509;SDS011;9896;42.486;26.506;2022-12-07T12:25:20;32.70;;;14.03;;
19509;SDS011;9896;42.486;26.506;2022-12-07T12:27:46;28.27;;;13.27;;
19509;SDS011;9896;42.486;26.506;2022-12-07T12:32:50;31.37;;;14.10;;
19509;SDS011;9896;42.486;26.506;2022-12-07T12:37:54;35.47;;;13.50;;
19509;SDS011;9896;42.486;26.506;2022-12-07T12:42:47;27.87;;;13.70;;
19509;SDS011;9896;42.486;26.506;2022-12-07T12:45:20;27.87;;;13.67;;
19509;SDS011;9896;42.486;26.506;2022-12-07T12:50:34;29.47;;;13.97;;
19509;SDS011;9896;42.486;26.506;2022-12-07T12:53:01;34.70;;;14.30;;
19509;SDS011;9896;42.486;26.506;2022-12-07T12:55:44;31.67;;;14.53;;
19509;SDS011;9896;42.486;26.506;2022-12-07T13:00:43;26.33;;;14.00;;
19509;SDS011;9896;42.486;26.506;2022-12-07T13:03:20;28.90;;;14.67;;
19509;SDS011;9896;42.486;26.506;2022-12-07T13:05:47;32.03;;;14.30;;
19509;SDS011;9896;42.486;26.506;2022-12-07T13:08:15;33.10;;;14.27;;
19509;SDS011;9896;42.486;26.506;2022-12-07T13:10:43;29.13;;;13.40;;
19509;SDS011;9896;42.486;26.506;2022-12-07T13:15:35;25.77;;;12.77;;
19509;SDS011;9896;42.486;26.506;2022-12-07T13:18:03;34.47;;;15.63;;
19509;SDS011;9896;42.486;26.506;2022-12-07T13:20:43;31.50;;;14.57;;
19509;SDS011;9896;42.486;26.506;2022-12-07T13:23:08;35.40;;;15.83;;
19509;SDS011;9896;42.486;26.506;2022-12-07T13:25:36;29.93;;;16.03;;
19509;SDS011;9896;42.486;26.506;2022-12-07T13:28:18;27.73;;;14.60;;
19509;SDS011;9896;42.486;26.506;2022-12-07T13:30:46;31.13;;;15.43;;
19509;SDS011;9896;42.486;26.506;2022-12-07T13:33:12;33.87;;;15.87;;
19509;SDS011;9896;42.486;26.506;2022-12-07T13:35:39;35.33;;;15.03;;
19509;SDS011;9896;42.486;26.506;2022-12-07T13:38:13;31.53;;;15.13;;
19509;SDS011;9896;42.486;26.506;2022-12-07T13:40:40;28.53;;;14.20;;
19509;SDS011;9896;42.486;26.506;2022-12-07T13:43:12;29.13;;;14.03;;
19509;SDS011;9896;42.486;26.506;2022-12-07T13:45:40;28.47;;;14.17;;
19509;SDS011;9896;42.486;26.506;2022-12-07T13:48:30;25.20;;;13.23;;
19509;SDS011;9896;42.486;26.506;2022-12-07T13:50:57;28.83;;;13.03;;
19509;SDS011;9896;42.486;26.506;2022-12-07T13:53:23;28.20;;;13.30;;
19509;SDS011;9896;42.486;26.506;2022-12-07T13:55:51;28.20;;;14.47;;
19509;SDS011;9896;42.486;26.506;2022-12-07T13:58:17;30.63;;;14.50;;
19509;SDS011;9896;42.486;26.506;2022-12-07T14:00:42;30.97;;;14.40;;
19509;SDS011;9896;42.486;26.506;2022-12-07T14:05:36;31.80;;;14.00;;
19509;SDS011;9896;42.486;26.506;2022-12-07T14:08:21;27.20;;;14.67;;
19509;SDS011;9896;42.486;26.506;2022-12-07T14:15:59;45.87;;;20.00;;
19509;SDS011;9896;42.486;26.506;2022-12-07T14:18:28;41.57;;;19.40;;
19509;SDS011;9896;42.486;26.506;2022-12-07T14:23:35;30.77;;;15.97;;
19509;SDS011;9896;42.486;26.506;2022-12-07T14:26:34;29.37;;;14.27;;
19509;SDS011;9896;42.486;26.506;2022-12-07T14:28:59;40.40;;;18.90;;
19509;SDS011;9896;42.486;26.506;2022-12-07T14:31:38;41.17;;;17.97;;
19509;SDS011;9896;42.486;26.506;2022-12-07T14:34:03;43.50;;;17.90;;
19509;SDS011;9896;42.486;26.506;2022-12-07T14:36:29;44.23;;;19.43;;
19509;SDS011;9896;42.486;26.506;2022-12-07T14:38:54;35.80;;;17.30;;
19509;SDS011;9896;42.486;26.506;2022-12-07T14:41:23;34.80;;;13.90;;
19509;SDS011;9896;42.486;26.506;2022-12-07T14:44:12;28.90;;;13.43;;
19509;SDS011;9896;42.486;26.506;2022-12-07T14:46:37;33.03;;;14.60;;
19509;SDS011;9896;42.486;26.506;2022-12-07T14:49:02;24.93;;;12.63;;
19509;SDS011;9896;42.486;26.506;2022-12-07T14:51:28;28.80;;;13.27;;
19509;SDS011;9896;42.486;26.506;2022-12-07T14:53:53;27.30;;;13.33;;
19509;SDS011;9896;42.486;26.506;2022-12-07T14:56:18;31.03;;;14.43;;
19509;SDS011;9896;42.486;26.506;2022-12-07T14:58:44;33.27;;;16.23;;
19509;SDS011;9896;42.486;26.506;2022-12-07T15:01:09;49.30;;;19.83;;
19509;SDS011;9896;42.486;26.506;2022-12-07T15:03:34;33.77;;;14.23;;
19509;SDS011;9896;42.486;26.506;2022-12-07T15:06:02;32.80;;;14.80;;
19509;SDS011;9896;42.486;26.506;2022-12-07T15:08:28;44.43;;;18.37;;
19509;SDS011;9896;42.486;26.506;2022-12-07T15:10:53;35.57;;;18.10;;
19509;SDS011;9896;42.486;26.506;2022-12-07T15:13:19;48.17;;;21.83;;
19509;SDS011;9896;42.486;26.506;2022-12-07T15:16:03;44.27;;;19.93;;
19509;SDS011;9896;42.486;26.506;2022-12-07T15:18:29;72.43;;;30.30;;
19509;SDS011;9896;42.486;26.506;2022-12-07T15:20:55;67.27;;;31.20;;
19509;SDS011;9896;42.486;26.506;2022-12-07T15:23:20;56.67;;;28.27;;
19509;SDS011;9896;42.486;26.506;2022-12-07T15:25:46;57.23;;;26.77;;
19509;SDS011;9896;42.486;26.506;2022-12-07T15:28:12;55.60;;;26.57;;
19509;SDS011;9896;42.486;26.506;2022-12-07T15:30:38;61.63;;;27.60;;
19509;SDS011;9896;42.486;26.506;2022-12-07T15:33:03;61.57;;;31.80;;
19509;SDS011;9896;42.486;26.506;2022-12-07T15:35:29;68.37;;;35.50;;
19509;SDS011;9896;42.486;26.506;2022-12-07T15:37:54;71.47;;;33.47;;
19509;SDS011;9896;42.486;26.506;2022-12-07T15:40:20;76.77;;;37.40;;
19509;SDS011;9896;42.486;26.506;2022-12-07T15:42:45;73.73;;;34.73;;
19509;SDS011;9896;42.486;26.506;2022-12-07T15:45:11;43.67;;;22.63;;
19509;SDS011;9896;42.486;26.506;2022-12-07T15:47:39;75.47;;;32.03;;
19509;SDS011;9896;42.486;26.506;2022-12-07T15:50:06;48.03;;;21.50;;
19509;SDS011;9896;42.486;26.506;2022-12-07T15:52:32;69.33;;;30.37;;
19509;SDS011;9896;42.486;26.506;2022-12-07T15:54:57;53.67;;;25.70;;
19509;SDS011;9896;42.486;26.506;2022-12-07T15:57:25;77.30;;;37.17;;
19509;SDS011;9896;42.486;26.506;2022-12-07T15:59:50;66.87;;;30.60;;
19509;SDS011;9896;42.486;26.506;2022-12-07T16:02:16;61.07;;;30.47;;
19509;SDS011;9896;42.486;26.506;2022-12-07T16:04:41;71.40;;;32.10;;
19509;SDS011;9896;42.486;26.506;2022-12-07T16:07:07;57.93;;;26.53;;